Time;durP1;ratioP1;P1;durP2;ratioP2;P2;SDS_P1;SDS_P2;PMS_P1;PMS_P2;Temp;Humidity;BMP_temperature;BMP_pressure;BME280_temperature;BME280_humidity;BME280_pressure;Samples;Min_cycle;Max_cycle;Signal;HPM_P1;HPM_P2
2021/11/03 00:02:15;;;;;;;16.70;11.52;;;3.90;99.90;;;;;;5049312;28;20045;-52
2021/11/03 00:04:41;;;;;;;12.75;10.25;;;4.00;99.90;;;;;;5049406;28;20037;-55
2021/11/03 00:07:09;;;;;;;14.85;12.48;;;4.00;99.90;;;;;;5049441;28;20025;-55
2021/11/03 00:09:35;;;;;;;22.67;13.23;;;4.00;99.90;;;;;;5049095;28;20057;-52
2021/11/03 00:12:01;;;;;;;18.33;12.05;;;4.10;99.90;;;;;;5049769;28;20536;-53
2021/11/03 00:14:27;;;;;;;18.77;13.30;;;4.10;99.90;;;;;;5049815;28;20048;-55
2021/11/03 00:16:52;;;;;;;17.52;12.05;;;4.10;99.90;;;;;;5049659;28;20031;-56
2021/11/03 00:19:18;;;;;;;16.70;12.63;;;4.20;99.90;;;;;;5050177;28;20061;-53
2021/11/03 00:21:43;;;;;;;19.58;13.13;;;4.20;99.90;;;;;;5049699;28;20108;-51
2021/11/03 00:24:09;;;;;;;17.50;13.02;;;4.20;99.90;;;;;;5057545;28;20021;-56
2021/11/03 00:26:35;;;;;;;14.93;12.15;;;4.20;99.90;;;;;;5050429;28;20404;-55
2021/11/03 00:29:00;;;;;;;19.15;12.85;;;4.20;99.90;;;;;;5049418;28;20064;-54
2021/11/03 00:31:26;;;;;;;14.63;12.27;;;4.20;99.90;;;;;;5051024;28;20467;-55
2021/11/03 00:33:51;;;;;;;15.77;12.35;;;4.20;99.90;;;;;;5049764;28;20029;-55
2021/11/03 00:36:17;;;;;;;17.40;12.55;;;4.20;99.90;;;;;;5030088;28;20423;-55
2021/11/03 00:38:43;;;;;;;14.82;11.40;;;4.20;99.90;;;;;;5046799;28;20100;-53
2021/11/03 00:41:08;;;;;;;19.98;12.75;;;4.20;99.90;;;;;;5049286;28;20089;-55
2021/11/03 00:43:34;;;;;;;17.80;12.10;;;4.20;99.90;;;;;;5032670;28;20412;-52
2021/11/03 00:46:00;;;;;;;17.63;12.20;;;4.20;99.90;;;;;;5047922;28;20048;-54
2021/11/03 00:48:26;;;;;;;16.20;12.27;;;4.20;99.90;;;;;;5048207;28;20025;-52
2021/11/03 00:50:52;;;;;;;15.15;11.57;;;4.10;99.90;;;;;;5048637;28;20062;-54
2021/11/03 00:53:18;;;;;;;17.33;12.45;;;4.10;99.90;;;;;;5049214;28;20044;-54
2021/11/03 00:55:45;;;;;;;14.95;11.57;;;4.10;99.90;;;;;;5048214;28;20182;-55
2021/11/03 00:58:11;;;;;;;17.00;12.43;;;4.00;99.90;;;;;;5047558;28;20032;-51
2021/11/03 01:00:37;;;;;;;16.02;11.73;;;4.10;99.90;;;;;;5029775;28;20025;-52
2021/11/03 01:03:04;;;;;;;17.08;11.48;;;4.00;99.90;;;;;;5048726;28;20080;-51
2021/11/03 01:05:29;;;;;;;18.58;12.23;;;4.00;99.90;;;;;;5049146;28;20099;-51
2021/11/03 01:07:55;;;;;;;15.32;11.95;;;4.00;99.90;;;;;;5030795;28;20016;-55
2021/11/03 01:10:24;;;;;;;18.25;13.05;;;3.90;99.90;;;;;;5048159;28;20043;-54
2021/11/03 01:12:50;;;;;;;13.23;11.27;;;3.90;99.90;;;;;;5047955;28;20021;-52
2021/11/03 01:15:19;;;;;;;15.30;11.50;;;4.00;99.90;;;;;;5030718;28;20435;-53
2021/11/03 01:17:45;;;;;;;13.95;11.35;;;3.90;99.90;;;;;;5045190;28;20055;-53
2021/11/03 01:20:12;;;;;;;16.65;11.75;;;3.90;99.90;;;;;;5049208;28;20057;-53
2021/11/03 01:22:39;;;;;;;16.15;11.93;;;4.00;99.90;;;;;;5045324;28;20056;-51
2021/11/03 01:25:06;;;;;;;13.73;11.65;;;3.90;99.90;;;;;;5045276;28;20055;-53
2021/11/03 01:27:32;;;;;;;17.95;12.00;;;3.90;99.90;;;;;;5049292;28;20051;-54
2021/11/03 01:29:58;;;;;;;14.40;11.55;;;3.90;99.90;;;;;;5046889;28;20492;-54
2021/11/03 01:32:23;;;;;;;16.40;11.65;;;4.00;99.90;;;;;;5048642;28;20033;-53
2021/11/03 01:34:49;;;;;;;15.80;12.52;;;3.90;99.90;;;;;;5024773;22;20070;-82
2021/11/03 01:37:15;;;;;;;15.15;12.35;;;4.00;99.90;;;;;;5015033;28;20038;-80
2021/11/03 01:39:40;;;;;;;18.98;12.85;;;4.00;99.90;;;;;;4980548;28;20014;-82
2021/11/03 01:42:06;;;;;;;17.85;13.07;;;4.00;99.90;;;;;;4978364;28;20034;-83
2021/11/03 01:44:32;;;;;;;16.98;12.27;;;4.10;99.90;;;;;;4973894;28;20046;-81
2021/11/03 01:47:35;;;;;;;14.43;12.30;;;4.10;99.90;;;;;;4980113;28;20069;-81
2021/11/03 01:50:04;;;;;;;16.77;12.80;;;4.10;99.90;;;;;;4980054;28;20019;-84
2021/11/03 01:52:30;;;;;;;14.80;11.30;;;4.10;99.90;;;;;;4982314;28;20686;-82
2021/11/03 01:54:57;;;;;;;15.15;11.80;;;4.10;99.90;;;;;;4977224;28;20051;-80
2021/11/03 01:57:43;;;;;;;15.63;11.50;;;4.10;99.90;;;;;;4976785;28;20473;-82
2021/11/03 02:00:13;;;;;;;17.88;12.65;;;4.10;99.90;;;;;;4970921;28;20450;-81
2021/11/03 02:02:39;;;;;;;16.08;12.27;;;4.10;99.90;;;;;;4980137;28;20034;-82
2021/11/03 02:05:08;;;;;;;15.50;11.13;;;4.10;99.90;;;;;;4978576;28;20026;-82
2021/11/03 02:07:34;;;;;;;14.77;11.55;;;4.00;99.90;;;;;;4975181;28;20035;-86
2021/11/03 02:10:00;;;;;;;16.38;12.88;;;4.00;99.90;;;;;;4977652;28;20064;-81
2021/11/03 02:12:28;;;;;;;15.88;11.57;;;4.00;99.90;;;;;;4974474;28;20034;-83
2021/11/03 02:14:55;;;;;;;14.82;11.68;;;4.00;99.90;;;;;;4978867;28;20026;-82
2021/11/03 02:17:22;;;;;;;13.73;10.32;;;4.00;99.90;;;;;;4979094;28;20117;-82
2021/11/03 02:19:50;;;;;;;15.60;12.13;;;4.00;99.90;;;;;;4973518;28;20019;-82
2021/11/03 02:22:35;;;;;;;17.13;11.88;;;4.00;99.90;;;;;;4972914;28;20031;-82
2021/11/03 02:25:07;;;;;;;17.58;12.88;;;4.10;99.90;;;;;;4974165;28;20708;-82
2021/11/03 02:27:36;;;;;;;16.50;12.45;;;4.10;99.90;;;;;;4974320;28;20026;-83
2021/11/03 02:30:04;;;;;;;18.02;12.60;;;4.10;99.90;;;;;;4974891;28;20018;-83
2021/11/03 02:32:31;;;;;;;18.02;11.77;;;4.20;99.90;;;;;;4976995;28;20050;-83
2021/11/03 02:34:57;;;;;;;17.38;13.13;;;4.20;99.90;;;;;;4978675;28;20023;-82
2021/11/03 02:37:39;;;;;;;16.20;12.13;;;4.20;99.90;;;;;;4974089;28;20033;-82
2021/11/03 02:40:14;;;;;;;16.75;12.57;;;4.30;99.90;;;;;;4976331;28;20897;-82
2021/11/03 02:42:46;;;;;;;18.08;12.77;;;4.30;99.90;;;;;;4967710;28;20898;-83
2021/11/03 02:45:38;;;;;;;19.48;12.85;;;4.30;99.90;;;;;;4976901;28;20049;-83
2021/11/03 02:48:04;;;;;;;18.77;12.48;;;4.40;99.90;;;;;;4969534;28;20111;-83
2021/11/03 02:50:30;;;;;;;18.20;12.63;;;4.40;99.90;;;;;;4972020;28;20413;-82
2021/11/03 02:52:56;;;;;;;17.88;12.55;;;4.50;99.90;;;;;;4976618;28;20027;-84
2021/11/03 02:55:21;;;;;;;21.13;14.10;;;4.50;99.90;;;;;;4977652;28;20764;-84
2021/11/03 02:57:47;;;;;;;18.85;13.48;;;4.50;99.90;;;;;;4977096;28;20047;-84
2021/11/03 03:00:18;;;;;;;16.25;12.80;;;4.60;99.90;;;;;;4971768;28;20441;-83
2021/11/03 03:02:44;;;;;;;20.38;14.23;;;4.60;99.90;;;;;;4972405;28;20018;-81
2021/11/03 03:05:10;;;;;;;16.20;12.57;;;4.70;99.90;;;;;;4978123;28;20122;-82
2021/11/03 03:07:36;;;;;;;19.13;14.18;;;4.80;99.90;;;;;;4978625;28;20033;-84
2021/11/03 03:10:03;;;;;;;18.80;12.88;;;4.80;99.90;;;;;;4978641;28;20023;-82
2021/11/03 03:12:30;;;;;;;19.40;14.75;;;4.80;99.90;;;;;;4975955;28;20039;-83
2021/11/03 03:14:57;;;;;;;21.42;13.98;;;4.90;99.90;;;;;;4977450;28;20191;-85
2021/11/03 03:17:22;;;;;;;18.67;13.52;;;4.90;99.90;;;;;;4983645;28;20027;-83
2021/11/03 03:19:48;;;;;;;20.30;13.82;;;5.00;99.90;;;;;;4978822;28;20027;-82
2021/11/03 03:22:17;;;;;;;21.60;14.77;;;5.00;99.90;;;;;;4981272;28;20026;-83
2021/11/03 03:24:44;;;;;;;20.60;13.30;;;5.00;99.90;;;;;;4977604;28;20022;-83
2021/11/03 03:27:10;;;;;;;19.70;13.15;;;5.00;99.90;;;;;;4974053;28;20026;-83
2021/11/03 03:29:36;;;;;;;18.45;14.05;;;5.00;99.90;;;;;;4974748;28;20034;-84
2021/11/03 03:32:02;;;;;;;20.70;14.00;;;5.10;99.90;;;;;;4985031;28;20023;-83
2021/11/03 03:34:28;;;;;;;22.35;13.63;;;5.10;99.90;;;;;;4983149;28;20039;-84
2021/11/03 03:36:56;;;;;;;17.92;12.65;;;5.10;99.90;;;;;;4983539;28;20030;-84
2021/11/03 03:39:23;;;;;;;16.60;12.52;;;5.10;99.90;;;;;;4981712;28;20111;-83
2021/11/03 03:42:04;;;;;;;17.88;13.75;;;5.20;99.90;;;;;;4977149;28;20031;-84
2021/11/03 03:44:30;;;;;;;18.80;12.20;;;5.20;99.90;;;;;;4978304;28;20031;-83
2021/11/03 03:46:55;;;;;;;16.42;12.52;;;5.20;99.90;;;;;;4977633;28;20069;-84
2021/11/03 03:49:22;;;;;;;20.05;13.20;;;5.20;99.90;;;;;;4979696;28;20046;-82
2021/11/03 03:51:47;;;;;;;18.67;12.88;;;5.20;99.90;;;;;;4977506;28;20538;-81
2021/11/03 03:54:13;;;;;;;19.63;13.50;;;5.20;99.90;;;;;;4977292;28;20033;-84
2021/11/03 03:56:39;;;;;;;15.35;12.05;;;5.20;99.90;;;;;;4972604;28;20046;-85
2021/11/03 03:59:05;;;;;;;15.57;12.23;;;5.30;99.90;;;;;;4980254;28;20022;-82
2021/11/03 04:01:31;;;;;;;18.70;12.88;;;5.20;99.90;;;;;;4975151;28;20662;-84
2021/11/03 04:03:56;;;;;;;16.45;12.57;;;5.30;99.90;;;;;;4977146;28;20038;-81
2021/11/03 04:06:22;;;;;;;18.67;12.50;;;5.30;99.90;;;;;;4984135;28;20030;-83
2021/11/03 04:08:48;;;;;;;16.60;12.15;;;5.30;99.90;;;;;;4978830;28;20045;-81
2021/11/03 04:11:14;;;;;;;18.00;12.95;;;5.30;99.90;;;;;;4982305;28;20027;-82
2021/11/03 04:13:42;;;;;;;15.38;12.57;;;5.30;99.90;;;;;;4975769;28;20383;-82
2021/11/03 04:16:08;;;;;;;17.60;11.57;;;5.30;99.90;;;;;;4981583;28;20021;-81
2021/11/03 04:18:33;;;;;;;15.52;11.70;;;5.30;99.90;;;;;;4976441;28;20022;-83
2021/11/03 04:20:59;;;;;;;18.75;12.50;;;5.30;99.90;;;;;;4978042;28;20168;-83
2021/11/03 04:23:24;;;;;;;18.13;13.63;;;5.30;99.90;;;;;;4977603;28;20968;-81
2021/11/03 04:25:50;;;;;;;15.35;11.63;;;5.40;99.90;;;;;;4981245;28;20743;-83
2021/11/03 04:28:16;;;;;;;20.02;12.60;;;5.40;99.90;;;;;;4974306;28;20026;-81
2021/11/03 04:30:42;;;;;;;17.63;13.20;;;5.40;99.90;;;;;;4974869;28;20019;-82
2021/11/03 04:33:08;;;;;;;16.70;11.48;;;5.40;99.90;;;;;;4975719;28;20095;-83
2021/11/03 04:35:35;;;;;;;19.17;12.55;;;5.40;99.90;;;;;;4992505;28;20093;-81
2021/11/03 04:38:00;;;;;;;16.17;11.43;;;5.40;99.90;;;;;;4997753;28;20021;-82
2021/11/03 04:40:28;;;;;;;13.77;11.43;;;5.40;99.90;;;;;;4995313;28;20043;-82
2021/11/03 04:42:54;;;;;;;15.23;11.27;;;5.40;99.90;;;;;;4980110;28;20042;-82
2021/11/03 04:45:20;;;;;;;15.13;11.32;;;5.40;99.90;;;;;;4980262;28;20035;-82
2021/11/03 04:47:47;;;;;;;16.10;11.60;;;5.40;99.90;;;;;;4978945;28;20412;-83
2021/11/03 04:50:17;;;;;;;16.92;12.43;;;5.40;99.90;;;;;;4980096;28;20479;-82
2021/11/03 04:52:43;;;;;;;16.95;11.18;;;5.40;99.90;;;;;;4976689;28;20034;-82
2021/11/03 04:55:09;;;;;;;15.93;11.98;;;5.40;99.90;;;;;;4983113;28;20019;-82
2021/11/03 04:57:34;;;;;;;16.13;11.32;;;5.40;99.90;;;;;;4976844;28;20106;-82
2021/11/03 05:00:04;;;;;;;14.65;11.93;;;5.50;99.90;;;;;;4981503;28;20029;-82
2021/11/03 05:02:30;;;;;;;20.75;11.63;;;5.50;99.90;;;;;;4981143;28;20466;-82
2021/11/03 05:04:56;;;;;;;14.43;11.57;;;5.50;99.90;;;;;;4975437;28;20030;-82
2021/11/03 05:07:21;;;;;;;14.82;10.75;;;5.50;99.90;;;;;;4975621;28;20876;-83
2021/11/03 05:09:47;;;;;;;16.00;10.93;;;5.60;99.90;;;;;;4978672;28;20091;-82
2021/11/03 05:12:12;;;;;;;17.02;11.77;;;5.50;99.90;;;;;;4978086;28;20061;-82
2021/11/03 05:14:38;;;;;;;13.63;11.18;;;5.50;99.90;;;;;;4973699;28;20034;-82
2021/11/03 05:17:04;;;;;;;17.27;11.85;;;5.50;99.90;;;;;;4982605;28;20106;-81
2021/11/03 05:19:32;;;;;;;16.13;11.23;;;5.50;99.90;;;;;;4981446;28;20050;-83
2021/11/03 05:22:00;;;;;;;16.77;11.05;;;5.60;99.90;;;;;;4979839;28;20371;-82
2021/11/03 05:24:26;;;;;;;14.00;10.95;;;5.60;99.90;;;;;;4968467;28;20096;-83
2021/11/03 05:26:53;;;;;;;13.90;10.25;;;5.60;99.90;;;;;;4981007;28;20045;-82
2021/11/03 05:29:20;;;;;;;13.55;10.93;;;5.60;99.90;;;;;;4981188;28;20058;-83
2021/11/03 05:31:45;;;;;;;14.30;11.15;;;5.60;99.90;;;;;;4981000;28;20035;-82
2021/11/03 05:34:11;;;;;;;13.02;10.95;;;5.60;99.90;;;;;;4977702;28;20521;-84
2021/11/03 05:36:37;;;;;;;18.33;11.52;;;5.60;99.90;;;;;;4978516;28;20169;-84
2021/11/03 05:39:07;;;;;;;16.15;11.18;;;5.60;99.90;;;;;;4975801;28;20030;-84
2021/11/03 05:41:38;;;;;;;14.70;11.32;;;5.60;99.90;;;;;;4981035;28;20033;-84
2021/11/03 05:44:08;;;;;;;15.10;10.18;;;5.60;99.90;;;;;;4981229;28;20035;-83
2021/11/03 05:46:44;;;;;;;12.27;10.50;;;5.60;99.90;;;;;;4977292;28;20023;-83
2021/11/03 05:49:12;;;;;;;12.98;9.70;;;5.70;99.90;;;;;;4975931;28;20030;-84
2021/11/03 05:51:39;;;;;;;15.77;11.05;;;5.70;99.90;;;;;;4964772;28;20251;-83
2021/11/03 05:54:05;;;;;;;17.38;11.10;;;5.70;99.90;;;;;;4980391;28;20054;-83
2021/11/03 05:56:31;;;;;;;15.02;10.88;;;5.70;99.90;;;;;;4975897;28;20018;-83
2021/11/03 05:58:58;;;;;;;18.40;11.35;;;5.70;99.90;;;;;;4978817;28;20025;-83
2021/11/03 06:01:23;;;;;;;13.40;10.15;;;5.70;99.90;;;;;;4976474;28;20037;-84
2021/11/03 06:03:52;;;;;;;14.90;10.77;;;5.70;99.90;;;;;;4975444;28;20022;-83
2021/11/03 06:06:18;;;;;;;11.82;10.52;;;5.70;99.90;;;;;;4978783;28;20030;-84
2021/11/03 06:08:44;;;;;;;12.63;10.00;;;5.70;99.90;;;;;;4974875;28;20479;-82
2021/11/03 06:11:14;;;;;;;18.75;11.20;;;5.70;99.90;;;;;;4975529;28;20041;-81
2021/11/03 06:13:41;;;;;;;13.52;10.18;;;5.70;99.90;;;;;;4979575;28;20042;-81
2021/11/03 06:16:07;;;;;;;15.40;10.68;;;5.70;99.90;;;;;;4974625;28;20023;-83
2021/11/03 06:18:32;;;;;;;12.15;10.15;;;5.60;99.90;;;;;;4979261;28;20026;-83
2021/11/03 06:20:58;;;;;;;13.60;10.40;;;5.60;99.90;;;;;;4975525;28;20103;-83
2021/11/03 06:23:23;;;;;;;13.10;9.15;;;5.60;99.90;;;;;;4972676;28;20042;-83
2021/11/03 06:25:49;;;;;;;14.82;10.75;;;5.60;99.90;;;;;;4974198;28;20023;-82
2021/11/03 06:28:15;;;;;;;20.33;11.68;;;5.50;99.90;;;;;;4974332;28;20465;-82
2021/11/03 06:30:40;;;;;;;14.95;10.65;;;5.50;99.90;;;;;;4974071;28;20019;-83
2021/11/03 06:33:07;;;;;;;16.67;10.85;;;5.50;99.90;;;;;;4979917;28;20019;-83
2021/11/03 06:35:35;;;;;;;12.32;9.60;;;5.50;99.90;;;;;;4985996;28;20026;-83
2021/11/03 06:38:01;;;;;;;16.13;11.00;;;5.50;99.90;;;;;;4976748;28;20027;-83
2021/11/03 06:40:27;;;;;;;13.38;10.27;;;5.50;99.90;;;;;;4980985;28;20046;-83
2021/11/03 06:42:53;;;;;;;13.05;9.98;;;5.40;99.90;;;;;;4981015;28;20550;-83
2021/11/03 06:45:19;;;;;;;12.80;10.27;;;5.40;99.90;;;;;;4979572;28;20558;-82
2021/11/03 06:47:46;;;;;;;14.63;10.82;;;5.40;99.90;;;;;;4977238;28;20030;-82
2021/11/03 06:50:17;;;;;;;11.32;9.50;;;5.40;99.90;;;;;;4979200;28;20079;-83
2021/11/03 06:52:44;;;;;;;11.18;8.82;;;5.40;99.90;;;;;;4978892;28;20064;-83
2021/11/03 06:55:10;;;;;;;11.23;9.45;;;5.30;99.90;;;;;;4984358;28;20031;-85
2021/11/03 06:57:36;;;;;;;11.35;9.02;;;5.30;99.90;;;;;;4984207;28;20034;-83
2021/11/03 07:00:05;;;;;;;13.00;9.25;;;5.20;99.90;;;;;;4979519;28;20019;-82
2021/11/03 07:02:31;;;;;;;14.52;9.98;;;5.20;99.90;;;;;;4975007;28;20019;-83
2021/11/03 07:04:56;;;;;;;11.73;9.30;;;5.20;99.90;;;;;;4984234;28;20052;-82
2021/11/03 07:07:22;;;;;;;12.93;9.75;;;5.20;99.90;;;;;;4981177;28;20026;-82
2021/11/03 07:09:47;;;;;;;14.38;10.25;;;5.20;99.90;;;;;;4977054;28;20045;-82
2021/11/03 07:12:13;;;;;;;11.75;10.10;;;5.20;99.90;;;;;;4982023;28;20056;-82
2021/11/03 07:14:38;;;;;;;15.07;10.15;;;5.10;99.90;;;;;;4977391;28;20084;-82
2021/11/03 07:17:06;;;;;;;15.32;10.27;;;5.10;99.90;;;;;;4980490;28;20014;-82
2021/11/03 07:19:32;;;;;;;15.52;10.63;;;5.10;99.90;;;;;;4977891;28;20456;-81
2021/11/03 07:21:57;;;;;;;14.60;10.82;;;5.10;99.90;;;;;;4977017;28;20301;-82
2021/11/03 07:24:23;;;;;;;13.40;9.73;;;5.10;99.90;;;;;;4983195;28;20037;-83
2021/11/03 07:26:49;;;;;;;13.90;10.55;;;5.20;99.90;;;;;;4981317;28;20038;-82
2021/11/03 07:29:14;;;;;;;18.67;11.27;;;5.20;99.90;;;;;;4978823;28;20037;-81
2021/11/03 07:31:40;;;;;;;16.55;11.05;;;5.20;99.90;;;;;;4981628;28;20027;-82
2021/11/03 07:34:05;;;;;;;16.65;11.10;;;5.20;99.90;;;;;;4977830;28;20034;-82
2021/11/03 07:36:32;;;;;;;17.58;12.27;;;5.20;99.90;;;;;;4985833;28;20028;-82
2021/11/03 07:38:58;;;;;;;17.27;11.98;;;5.30;99.90;;;;;;4978010;28;20026;-83
2021/11/03 07:41:24;;;;;;;15.15;11.63;;;5.30;99.90;;;;;;4976541;28;20022;-82
2021/11/03 07:43:50;;;;;;;15.60;12.43;;;5.30;99.90;;;;;;4980251;28;20078;-82
2021/11/03 07:46:17;;;;;;;17.13;12.02;;;5.30;99.90;;;;;;4980943;28;20031;-81
2021/11/03 07:48:43;;;;;;;15.65;12.18;;;5.40;99.90;;;;;;4981070;28;20030;-82
2021/11/03 07:51:13;;;;;;;18.95;13.07;;;5.40;99.90;;;;;;4974377;28;20034;-81
2021/11/03 07:53:40;;;;;;;17.20;12.75;;;5.40;99.90;;;;;;4977846;28;20030;-82
2021/11/03 07:56:11;;;;;;;18.38;13.25;;;5.50;99.90;;;;;;4978436;28;20015;-82
2021/11/03 07:58:38;;;;;;;17.75;13.60;;;5.50;99.90;;;;;;4972166;28;20221;-82
2021/11/03 08:01:05;;;;;;;17.30;12.55;;;5.50;99.90;;;;;;4980373;28;20102;-82
2021/11/03 08:03:31;;;;;;;19.10;13.88;;;5.50;99.90;;;;;;4973847;28;20023;-82
2021/11/03 08:05:57;;;;;;;17.98;13.88;;;5.60;99.90;;;;;;4979390;28;20030;-81
2021/11/03 08:08:25;;;;;;;18.92;13.68;;;5.60;99.90;;;;;;4972620;28;20053;-81
2021/11/03 08:10:53;;;;;;;22.10;14.48;;;5.60;99.90;;;;;;4977083;28;20019;-82
2021/11/03 08:13:22;;;;;;;21.38;14.45;;;5.70;99.90;;;;;;4981437;28;20030;-82
2021/11/03 08:15:50;;;;;;;21.77;14.80;;;5.70;99.90;;;;;;4974833;28;20023;-82
2021/11/03 08:18:17;;;;;;;24.38;15.10;;;5.80;99.90;;;;;;4982566;28;20019;-82
2021/11/03 08:20:44;;;;;;;23.67;14.98;;;5.80;99.90;;;;;;4977618;28;20019;-82
2021/11/03 08:23:11;;;;;;;21.55;14.82;;;5.90;99.90;;;;;;4980042;28;20033;-82
2021/11/03 08:25:37;;;;;;;22.45;14.77;;;5.90;99.90;;;;;;4977661;28;20042;-83
2021/11/03 08:28:03;;;;;;;23.50;15.50;;;6.00;99.90;;;;;;4976936;28;20027;-82
2021/11/03 08:30:29;;;;;;;24.48;15.63;;;6.10;99.90;;;;;;4980568;28;20441;-82
2021/11/03 08:33:03;;;;;;;26.63;16.05;;;6.20;99.90;;;;;;4977693;28;20049;-82
2021/11/03 08:35:29;;;;;;;26.02;17.17;;;6.30;99.90;;;;;;4979877;28;20045;-83
2021/11/03 08:37:59;;;;;;;26.63;17.13;;;6.40;99.90;;;;;;4976342;28;20023;-82
2021/11/03 08:40:25;;;;;;;25.42;16.75;;;6.50;99.90;;;;;;4991938;28;20042;-81
2021/11/03 08:42:52;;;;;;;24.25;17.05;;;6.60;99.90;;;;;;4997528;28;20034;-81
2021/11/03 08:45:18;;;;;;;25.30;17.02;;;6.70;99.90;;;;;;4997980;28;20019;-81
2021/11/03 08:47:44;;;;;;;26.88;17.77;;;6.70;99.90;;;;;;4981830;28;20067;-82
2021/11/03 08:50:17;;;;;;;25.45;16.95;;;6.80;99.90;;;;;;4979021;28;20104;-82
2021/11/03 08:52:44;;;;;;;27.92;18.35;;;6.80;99.90;;;;;;4977838;28;20101;-83
2021/11/03 08:55:11;;;;;;;28.45;17.67;;;6.80;99.90;;;;;;4984375;28;20110;-82
2021/11/03 08:57:38;;;;;;;24.85;16.60;;;6.90;99.90;;;;;;4982797;28;20023;-83
2021/11/03 09:00:11;;;;;;;27.30;16.88;;;6.90;99.90;;;;;;4975060;28;20027;-84
2021/11/03 09:02:37;;;;;;;26.67;16.33;;;6.90;99.90;;;;;;4977663;28;20057;-84
2021/11/03 09:05:03;;;;;;;29.42;17.75;;;7.00;99.90;;;;;;4981928;28;20018;-84
2021/11/03 09:07:32;;;;;;;28.70;18.92;;;7.10;99.90;;;;;;4984087;28;20034;-84
2021/11/03 09:09:58;;;;;;;29.40;18.48;;;7.10;99.90;;;;;;4983035;28;20068;-83
2021/11/03 09:12:24;;;;;;;27.80;18.58;;;7.20;99.90;;;;;;4980440;28;20039;-83
2021/11/03 09:14:49;;;;;;;26.98;19.17;;;7.30;99.90;;;;;;4975755;28;20027;-84
2021/11/03 09:17:15;;;;;;;34.97;20.35;;;7.30;99.90;;;;;;4975643;28;20037;-84
2021/11/03 09:19:41;;;;;;;28.50;19.67;;;7.40;99.90;;;;;;4978352;28;20019;-84
2021/11/03 09:22:07;;;;;;;30.30;20.13;;;7.40;99.90;;;;;;4978514;28;20159;-84
2021/11/03 09:24:35;;;;;;;27.75;19.42;;;7.50;99.90;;;;;;4979440;28;20047;-84
2021/11/03 09:27:04;;;;;;;31.92;20.95;;;7.50;99.90;;;;;;4973597;28;20102;-84
2021/11/03 09:29:30;;;;;;;33.63;21.17;;;7.50;99.90;;;;;;4978682;28;20043;-84
2021/11/03 09:31:56;;;;;;;32.55;21.40;;;7.60;99.90;;;;;;4979685;28;20114;-84
2021/11/03 09:34:22;;;;;;;29.98;18.95;;;7.60;99.90;;;;;;4982157;28;20051;-84
2021/11/03 09:36:48;;;;;;;29.40;20.50;;;7.70;99.90;;;;;;4985900;28;20079;-85
2021/11/03 09:39:18;;;;;;;26.95;19.40;;;7.70;99.90;;;;;;4983155;28;20033;-84
2021/11/03 09:41:49;;;;;;;30.38;20.02;;;7.70;99.90;;;;;;4978492;28;20035;-83
2021/11/03 09:44:24;;;;;;;32.65;21.80;;;7.60;99.90;;;;;;4979292;28;20043;-84
2021/11/03 09:47:22;;;;;;;31.90;21.17;;;7.60;99.90;;;;;;4978384;28;20079;-84
2021/11/03 09:49:55;;;;;;;37.35;22.05;;;7.60;99.90;;;;;;4968637;28;20054;-84
2021/11/03 09:52:33;;;;;;;37.33;22.92;;;7.70;99.90;;;;;;4980392;28;20086;-84
2021/11/03 09:55:21;;;;;;;32.03;21.40;;;7.80;99.90;;;;;;4976985;28;20030;-82
2021/11/03 09:58:18;;;;;;;32.70;21.33;;;7.80;99.90;;;;;;4977040;28;20045;-84
2021/11/03 10:00:44;;;;;;;36.78;22.92;;;7.80;99.90;;;;;;4975710;28;20529;-84
2021/11/03 10:03:45;;;;;;;34.85;21.08;;;7.80;99.90;;;;;;4975211;28;20087;-84
2021/11/03 10:06:44;;;;;;;32.38;20.27;;;7.80;99.90;;;;;;4979172;28;20166;-83
2021/11/03 10:09:10;;;;;;;34.47;22.15;;;7.80;99.90;;;;;;4972647;28;20481;-84
2021/11/03 10:11:40;;;;;;;31.33;20.45;;;7.80;99.90;;;;;;4973780;28;20121;-83
2021/11/03 10:14:07;;;;;;;33.35;20.85;;;7.80;99.90;;;;;;4979843;28;20049;-84
2021/11/03 10:16:43;;;;;;;30.48;19.75;;;7.90;99.90;;;;;;4981953;28;20023;-84
2021/11/03 10:19:14;;;;;;;31.40;20.80;;;7.80;99.90;;;;;;4979792;28;20026;-84
2021/11/03 10:21:49;;;;;;;30.60;19.42;;;7.80;99.90;;;;;;4979039;28;20574;-83
2021/11/03 10:24:15;;;;;;;32.85;20.83;;;7.80;99.90;;;;;;4977849;28;20049;-84
2021/11/03 10:26:58;;;;;;;32.10;21.70;;;7.80;99.90;;;;;;4972902;28;20045;-84
2021/11/03 10:29:26;;;;;;;31.77;19.50;;;7.90;99.90;;;;;;4974547;28;20501;-83
2021/11/03 10:32:09;;;;;;;27.95;18.27;;;7.90;99.90;;;;;;4979273;28;20092;-84
2021/11/03 10:34:34;;;;;;;28.98;19.00;;;7.90;99.90;;;;;;4977844;28;20035;-84
2021/11/03 10:37:09;;;;;;;26.83;18.27;;;7.90;99.90;;;;;;4977753;28;20022;-83
2021/11/03 10:39:40;;;;;;;25.15;17.05;;;7.90;99.90;;;;;;4978840;28;20114;-84
2021/11/03 10:42:27;;;;;;;29.15;18.75;;;7.90;99.90;;;;;;4975238;28;20442;-84
2021/11/03 10:45:12;;;;;;;27.90;19.33;;;8.00;99.90;;;;;;4975915;28;20027;-84
2021/11/03 10:47:37;;;;;;;27.63;18.40;;;7.90;99.90;;;;;;4976897;28;20053;-84
2021/11/03 10:50:23;;;;;;;28.52;18.40;;;8.00;99.90;;;;;;4978033;28;20046;-84
2021/11/03 10:53:12;;;;;;;31.45;21.05;;;8.00;99.90;;;;;;4980166;28;20045;-84
2021/11/03 10:55:38;;;;;;;30.63;20.15;;;8.00;99.90;;;;;;4977584;28;20038;-84
2021/11/03 10:58:21;;;;;;;29.02;19.23;;;8.10;99.90;;;;;;4974653;28;20614;-84
2021/11/03 11:01:07;;;;;;;28.88;19.05;;;8.20;99.90;;;;;;4975567;28;20399;-83
2021/11/03 11:03:57;;;;;;;30.05;19.88;;;8.20;99.90;;;;;;4974327;28;20080;-84
2021/11/03 11:06:38;;;;;;;24.77;17.27;;;8.20;99.90;;;;;;4976135;28;20030;-83
2021/11/03 11:09:09;;;;;;;29.42;18.25;;;8.20;99.90;;;;;;4973090;28;20023;-84
2021/11/03 11:11:38;;;;;;;26.38;17.80;;;8.20;99.90;;;;;;4977087;28;20122;-85
2021/11/03 11:14:17;;;;;;;28.88;19.70;;;8.30;99.90;;;;;;4970672;28;20023;-85
2021/11/03 11:16:46;;;;;;;26.63;18.52;;;8.40;99.90;;;;;;4980290;28;20022;-84
2021/11/03 11:19:41;;;;;;;28.48;17.60;;;8.40;99.90;;;;;;4977143;28;20034;-83
2021/11/03 11:22:36;;;;;;;26.23;17.00;;;8.50;99.90;;;;;;4977567;28;20088;-84
2021/11/03 11:25:12;;;;;;;26.20;17.98;;;8.50;99.90;;;;;;4940273;28;20904;-84
2021/11/03 11:28:02;;;;;;;26.55;17.20;;;8.50;99.90;;;;;;4979082;28;20030;-83
2021/11/03 11:31:00;;;;;;;26.55;17.73;;;8.50;99.90;;;;;;4975794;28;20039;-82
2021/11/03 11:33:26;;;;;;;;;;;8.50;99.90;;;;;;4977529;28;20514;-82
2021/11/03 11:36:10;;;;;;;22.77;16.35;;;8.50;99.90;;;;;;4981039;28;20357;-82
2021/11/03 11:39:03;;;;;;;23.00;15.00;;;8.50;99.90;;;;;;4980303;28;20045;-82
2021/11/03 11:41:35;;;;;;;24.40;15.80;;;8.50;99.90;;;;;;4985890;28;20035;-82
2021/11/03 11:44:16;;;;;;;24.13;16.15;;;8.50;99.90;;;;;;4978576;28;20069;-82
2021/11/03 11:46:44;;;;;;;20.55;14.60;;;8.50;99.90;;;;;;4978887;28;20041;-82
2021/11/03 11:49:33;;;;;;;25.00;15.30;;;8.60;99.90;;;;;;4982257;28;20530;-82
2021/11/03 11:52:24;;;;;;;23.42;15.20;;;8.60;99.90;;;;;;4980742;28;20099;-81
2021/11/03 11:55:11;;;;;;;24.77;15.02;;;8.70;99.90;;;;;;4975338;28;20039;-82
2021/11/03 11:57:39;;;;;;;26.38;15.68;;;8.70;99.90;;;;;;4976198;28;20387;-82
2021/11/03 12:00:10;;;;;;;25.10;15.90;;;8.80;99.90;;;;;;4983567;28;20027;-82
2021/11/03 12:02:49;;;;;;;22.58;14.93;;;8.80;99.90;;;;;;4978666;28;20031;-81
2021/11/03 12:05:27;;;;;;;20.05;14.30;;;8.80;99.90;;;;;;4973669;28;20037;-83
2021/11/03 12:08:11;;;;;;;24.25;16.20;;;8.90;99.90;;;;;;4980598;28;20101;-82
2021/11/03 12:10:41;;;;;;;21.77;15.00;;;8.90;99.90;;;;;;4980886;28;20094;-83
2021/11/03 12:13:13;;;;;;;23.10;15.55;;;8.90;99.90;;;;;;4975517;28;20027;-82
2021/11/03 12:15:45;;;;;;;21.63;15.60;;;8.90;99.90;;;;;;4972708;28;20113;-82
2021/11/03 12:18:35;;;;;;;21.23;15.90;;;8.90;99.90;;;;;;4977331;28;20047;-82
2021/11/03 12:21:00;;;;;;;20.65;14.35;;;8.90;99.90;;;;;;4966456;28;20466;-82
2021/11/03 12:23:49;;;;;;;23.88;15.40;;;8.90;99.90;;;;;;4982960;28;20053;-82
2021/11/03 12:26:39;;;;;;;24.20;14.15;;;8.90;99.90;;;;;;4976132;28;20125;-83
2021/11/03 12:29:17;;;;;;;19.75;14.00;;;9.00;99.90;;;;;;4977876;28;20038;-82
2021/11/03 12:31:42;;;;;;;21.50;14.50;;;9.00;99.90;;;;;;4979661;28;20619;-82
2021/11/03 12:34:08;;;;;;;18.50;14.43;;;9.00;99.90;;;;;;4987526;28;20035;-83
2021/11/03 12:36:51;;;;;;;23.35;12.93;;;9.00;99.90;;;;;;4980806;28;20090;-82
2021/11/03 12:39:47;;;;;;;15.80;12.80;;;9.00;99.90;;;;;;4980346;28;20030;-82
2021/11/03 12:42:19;;;;;;;20.42;13.93;;;9.00;99.90;;;;;;4985223;28;20471;-83
2021/11/03 12:45:03;;;;;;;17.92;12.23;;;9.10;99.90;;;;;;4981066;28;20383;-83
2021/11/03 12:47:45;;;;;;;18.02;13.20;;;9.10;99.90;;;;;;4980753;28;20549;-83
2021/11/03 12:50:22;;;;;;;19.65;13.43;;;9.10;99.90;;;;;;4981910;28;20053;-83
2021/11/03 12:52:52;;;;;;;18.10;12.65;;;9.10;99.90;;;;;;4982369;28;20034;-82